createdAt,value
2023-03-12T00:00:55.558Z,60.07
2023-03-12T00:05:59.162Z,60.23
2023-03-12T00:11:08.357Z,60.14
2023-03-12T00:16:16.088Z,59.79
2023-03-12T00:21:18.968Z,59.65
2023-03-12T00:26:21.514Z,59.62
2023-03-12T00:31:28.971Z,59.57
2023-03-12T00:36:32.306Z,59.13
2023-03-12T00:41:34.600Z,59.47
2023-03-12T00:46:36.766Z,58.70
2023-03-12T00:51:38.848Z,57.46
2023-03-12T00:56:40.935Z,58.10
2023-03-12T01:01:43.635Z,57.53
2023-03-12T01:06:45.703Z,56.47
2023-03-12T01:11:47.765Z,56.24
2023-03-12T01:16:52.391Z,55.75
2023-03-12T01:21:54.688Z,55.25
2023-03-12T01:26:57.369Z,55.20
2023-03-12T01:31:59.456Z,55.12
2023-03-12T01:37:01.921Z,55.55
2023-03-12T01:42:04.390Z,55.47
2023-03-12T01:47:06.428Z,55.43
2023-03-12T01:52:15.262Z,55.94
2023-03-12T01:57:22.250Z,56.36
2023-03-12T02:02:28.653Z,56.24
2023-03-12T02:07:30.782Z,56.44
2023-03-12T02:12:32.933Z,56.87
2023-03-12T02:17:36.838Z,56.96
2023-03-12T02:22:41.898Z,56.97
2023-03-12T02:27:44.160Z,57.08
2023-03-12T02:32:48.585Z,57.46
2023-03-12T02:37:53.881Z,57.63
2023-03-12T02:42:56.462Z,57.90
2023-03-12T02:47:59.028Z,58.15
2023-03-12T02:53:01.068Z,58.65
2023-03-12T02:58:03.131Z,59.80
2023-03-12T03:03:05.470Z,60.61
2023-03-12T03:08:07.861Z,61.58
2023-03-12T03:13:09.963Z,62.17
2023-03-12T03:18:12.109Z,62.97
2023-03-12T03:23:14.207Z,64.10
2023-03-12T03:28:16.268Z,65.01
2023-03-12T03:33:18.365Z,65.22
2023-03-12T03:38:20.405Z,65.56
2023-03-12T03:43:22.609Z,65.71
2023-03-12T03:48:25.133Z,65.25
2023-03-12T03:53:27.198Z,65.92
2023-03-12T03:58:29.238Z,66.31
2023-03-12T04:03:31.482Z,66.82
2023-03-12T04:08:37.173Z,66.98
2023-03-12T04:13:39.312Z,67.32
2023-03-12T04:18:41.429Z,67.37
2023-03-12T04:23:43.633Z,67.59
2023-03-12T04:28:45.715Z,67.89
2023-03-12T04:33:47.793Z,68.27
2023-03-12T04:38:49.926Z,68.74
2023-03-12T04:43:51.972Z,68.42
2023-03-12T04:48:54.122Z,68.36
2023-03-12T04:53:56.386Z,68.97
2023-03-12T04:58:58.491Z,69.29
2023-03-12T05:04:00.917Z,69.83
2023-03-12T05:09:03.989Z,70.23
2023-03-12T05:14:06.092Z,70.86
2023-03-12T05:19:08.210Z,70.98
2023-03-12T05:24:12.939Z,71.27
2023-03-12T05:29:15.322Z,71.38
2023-03-12T05:34:17.491Z,71.49
2023-03-12T05:39:19.727Z,71.46
2023-03-12T05:44:21.793Z,71.29
2023-03-12T05:49:23.931Z,70.98
2023-03-12T05:54:26.567Z,70.96
2023-03-12T05:59:29.525Z,70.59
2023-03-12T06:04:31.710Z,70.45
2023-03-12T06:09:33.897Z,70.05
2023-03-12T06:14:36.086Z,69.59
2023-03-12T06:19:38.172Z,69.17
2023-03-12T06:24:42.575Z,68.90
2023-03-12T06:29:46.998Z,68.36
2023-03-12T06:34:49.119Z,67.68
2023-03-12T06:39:51.754Z,66.85
2023-03-12T06:44:54.000Z,65.91
2023-03-12T06:49:56.087Z,65.24
2023-03-12T06:54:58.161Z,65.11
2023-03-12T07:00:00.249Z,64.71
2023-03-12T07:05:02.365Z,64.54
2023-03-12T07:10:06.550Z,64.09
2023-03-12T07:15:09.105Z,63.59
2023-03-12T07:20:11.769Z,62.67
2023-03-12T07:25:13.854Z,62.19
2023-03-12T07:30:16.146Z,61.67
2023-03-12T07:35:18.508Z,61.00
2023-03-12T07:40:21.482Z,60.48
2023-03-12T07:45:24.496Z,60.10
2023-03-12T07:50:26.662Z,59.77
2023-03-12T07:55:28.883Z,59.28
2023-03-12T08:00:31.867Z,58.25
2023-03-12T08:05:34.006Z,57.47
2023-03-12T08:10:37.200Z,57.17
2023-03-12T08:15:39.358Z,57.26
2023-03-12T08:20:41.470Z,55.67
2023-03-12T08:25:47.171Z,55.41
2023-03-12T08:30:54.874Z,53.79
2023-03-12T08:35:56.989Z,52.60
2023-03-12T08:41:00.879Z,52.12
2023-03-12T08:46:04.209Z,51.56
2023-03-12T08:51:07.643Z,50.76
2023-03-12T08:56:09.712Z,49.91
2023-03-12T09:01:13.410Z,49.40
2023-03-12T09:06:16.838Z,47.08
2023-03-12T09:11:19.043Z,47.44
2023-03-12T09:16:21.144Z,46.49
2023-03-12T09:21:23.267Z,46.35
2023-03-12T09:26:25.383Z,45.15
2023-03-12T09:31:27.632Z,42.64
2023-03-12T09:36:29.758Z,42.44
2023-03-12T09:41:35.885Z,42.05
2023-03-12T09:46:44.124Z,40.74
2023-03-12T09:51:52.466Z,40.65
2023-03-12T09:56:57.298Z,40.94
2023-03-12T10:02:06.456Z,38.63
2023-03-12T10:07:23.838Z,37.56
2023-03-12T10:12:52.866Z,36.50
2023-03-12T10:18:08.798Z,35.07
2023-03-12T10:23:23.429Z,33.24
2023-03-12T10:28:41.786Z,31.99
2023-03-12T10:33:50.345Z,31.72
2023-03-12T10:38:52.433Z,31.70
2023-03-12T10:43:57.255Z,30.59
2023-03-12T10:49:38.503Z,27.93
2023-03-12T10:54:43.693Z,26.32
2023-03-12T10:59:47.894Z,25.51
2023-03-12T11:04:53.462Z,25.29
2023-03-12T11:10:07.574Z,26.01
2023-03-12T11:15:24.883Z,25.93
2023-03-12T11:20:29.812Z,25.08
2023-03-12T11:25:31.958Z,23.15
2023-03-12T11:30:40.014Z,22.63
2023-03-12T11:36:04.484Z,22.18
2023-03-12T11:41:09.582Z,22.60
2023-03-12T11:46:11.929Z,22.97
2023-03-12T11:51:22.799Z,22.52
2023-03-12T11:56:27.749Z,22.69
2023-03-12T12:01:43.956Z,21.63
2023-03-12T12:07:17.025Z,21.35
2023-03-12T12:12:48.268Z,20.60
2023-03-12T12:18:24.667Z,20.70
2023-03-12T12:23:45.035Z,21.21
2023-03-12T12:29:17.028Z,19.56
2023-03-12T12:34:37.968Z,14.28
2023-03-12T12:39:47.029Z,10.95
2023-03-12T12:44:52.562Z,14.06
2023-03-12T12:49:58.263Z,14.33
2023-03-12T12:55:19.629Z,13.26
2023-03-12T13:00:41.996Z,13.33
2023-03-12T13:05:55.032Z,8.80
2023-03-12T13:11:06.227Z,8.33
2023-03-12T13:16:21.799Z,7.96
2023-03-12T13:21:38.038Z,7.00
2023-03-12T13:27:21.295Z,7.23
2023-03-12T13:32:35.374Z,7.24
2023-03-12T13:37:46.508Z,7.74
2023-03-12T13:43:09.906Z,6.61
2023-03-12T13:48:18.226Z,7.09
2023-03-12T13:53:33.611Z,6.65
2023-03-12T13:58:50.304Z,6.48
2023-03-12T14:04:03.971Z,5.78
2023-03-12T14:09:24.162Z,5.85
2023-03-12T14:14:48.377Z,7.16
2023-03-12T14:20:12.020Z,7.57
2023-03-12T14:25:33.425Z,8.08
2023-03-12T14:30:41.798Z,7.05
2023-03-12T14:35:51.313Z,8.63
2023-03-12T14:40:53.332Z,7.62
2023-03-12T14:46:00.925Z,10.74
2023-03-12T14:51:05.383Z,11.63
2023-03-12T14:56:13.376Z,9.70
2023-03-12T15:01:19.334Z,7.93
2023-03-12T15:06:30.333Z,9.03
2023-03-12T15:11:35.934Z,10.09
2023-03-12T15:16:38.597Z,11.96
2023-03-12T15:21:40.899Z,12.23
2023-03-12T15:26:43.902Z,11.34
2023-03-12T15:31:48.576Z,12.37
2023-03-12T15:36:51.754Z,14.05
2023-03-12T15:41:56.442Z,14.51
2023-03-12T15:47:13.251Z,15.07
2023-03-12T15:52:24.798Z,15.46
2023-03-12T15:57:26.887Z,16.98
2023-03-12T16:02:46.575Z,17.43
2023-03-12T16:07:49.234Z,19.80
2023-03-12T16:12:59.772Z,20.90
2023-03-12T16:18:02.142Z,21.28
2023-03-12T16:23:04.283Z,21.62
2023-03-12T16:28:06.953Z,22.21
2023-03-12T16:33:13.360Z,22.46
2023-03-12T16:38:15.484Z,21.99
2023-03-12T16:43:23.386Z,22.43
2023-03-12T16:48:26.499Z,23.13
2023-03-12T16:53:28.734Z,23.44
2023-03-12T16:58:31.218Z,23.40
2023-03-12T17:03:36.400Z,23.97
2023-03-12T17:08:39.512Z,24.42
2023-03-12T17:13:41.785Z,25.01
2023-03-12T17:18:44.185Z,25.45
2023-03-12T17:23:50.049Z,26.06
2023-03-12T17:28:52.160Z,26.40
2023-03-12T17:33:54.265Z,27.46
2023-03-12T17:38:56.770Z,27.76
2023-03-12T17:44:01.646Z,28.15
2023-03-12T17:49:04.012Z,28.60
2023-03-12T17:54:06.227Z,28.92
2023-03-12T17:59:08.307Z,29.26
2023-03-12T18:04:10.521Z,30.49
2023-03-12T18:09:12.643Z,29.76
2023-03-12T18:14:14.762Z,31.27
2023-03-12T18:19:17.224Z,31.41
2023-03-12T18:24:19.906Z,31.87
2023-03-12T18:29:22.003Z,33.03
2023-03-12T18:34:24.093Z,33.47
2023-03-12T18:39:26.411Z,34.65
2023-03-12T18:44:28.626Z,35.62
2023-03-12T18:49:30.815Z,35.58
2023-03-12T18:54:33.762Z,36.48
2023-03-12T18:59:35.874Z,36.88
2023-03-12T19:04:38.177Z,37.50
2023-03-12T19:09:40.329Z,38.34
2023-03-12T19:14:42.489Z,39.01
2023-03-12T19:19:44.611Z,39.23
2023-03-12T19:24:47.924Z,39.76
2023-03-12T19:29:50.087Z,40.20
2023-03-12T19:34:52.464Z,40.92
2023-03-12T19:39:54.642Z,41.77
2023-03-12T19:44:56.827Z,41.66
2023-03-12T19:49:59.316Z,41.66
2023-03-12T19:55:05.207Z,41.95
2023-03-12T20:00:10.555Z,41.88
2023-03-12T20:05:13.193Z,41.87
2023-03-12T20:10:15.754Z,42.26
2023-03-12T20:15:18.353Z,43.13
2023-03-12T20:20:20.732Z,43.35
2023-03-12T20:25:22.917Z,42.97
2023-03-12T20:30:25.054Z,43.17
2023-03-12T20:35:27.593Z,42.77
2023-03-12T20:40:29.924Z,43.42
